Terminal Aerodrome Forecast
Issued by NWS

Current Version | Previous Version | Text Only | Print | Product List | Glossary On
Versions: 1 2 3 4 5 6 7 8 9 10 11 12 13 14 15 16 17 18 19 20 21 22 23 24 25 26 27
000
FTUS44 KFWD 312300
TAFDAL
TAF
KDAL 312321Z 0100/0124 36010KT P6SM BKN015 OVC020
     FM010800 36007KT P6SM BKN008
     FM011400 01009KT P6SM BKN012
     FM011800 02009KT P6SM BKN025
     FM012100 04008KT P6SM BKN040=

USA.gov is the U.S. government's official web portal to all federal, state and local government web resources and services.